Latest Coastal Weather Observations for Cape Sorell

IDT60701

Issued at 8:52 am EDT Friday 9 December 2016 (issued every 10 minutes, with the page automatically refreshed every 10 minutes)

About coastal observations | Map of coastal stations | Coastal observations for TAS | Marine services | Other Formats
Station Details ID: 097000 Name: CAPE SORELL Lat: -42.20 Lon: 145.17 Height: 19.3 m
Data from the previous 72 hours. | See also: Recent months at Cape Sorell
Date/Time
EDT
Temp
°C
Wind Pressure Rain since
9am
mm
Weather Cloud Vis
km
Sea
Height
m
Swell
Dir  Spd
kts
Gust
kts
hPa Trend Height
m
Period
s
Dir
09/08:30am 10.8 SW 27 33 1009.7 - 2.6 - - - - - - -
09/08:18am 10.1 SSW 22 35 1009.1 - 2.6 - - - - - - -
09/08:00am 10.0 SSW 26 34 1009.2 - 2.6 - - - - - - -
09/07:38am 8.6 SSW 27 37 1008.7 - 2.6 - - - - - - -
09/07:30am 9.1 SSW 29 37 1008.4 - 2.4 - - - - - - -
09/07:00am 10.4 SSW 25 30 1007.6 - 2.4 - - - - - - -
09/06:30am 10.6 SW 29 33 1006.7 - 2.4 - - - - - - -
09/06:00am 10.3 SW 31 35 1006.1 - 2.4 - - - - - - -
09/05:30am 10.2 SSW 31 39 1005.0 - 2.4 - - - - - - -
09/05:00am 9.8 SW 33 40 1004.7 - 2.4 - - - - - - -
09/04:30am 9.5 SW 28 33 1004.1 - 2.4 - - - - - - -
09/04:09am 9.5 SW 31 44 1003.3 - 2.4 - - - - - - -
09/04:00am 9.1 SSW 26 30 1003.7 - 2.4 - - - - - - -
09/03:49am 8.7 SSW 32 40 1003.7 - 2.4 - - - - - - -
09/03:36am 9.3 SSW 29 42 1002.7 - 2.2 - - - - - - -
09/03:34am 10.3 SSW 27 40 1003.1 - 2.2 - - - - - - -
09/03:30am 10.5 SSW 27 34 1003.4 - 2.2 - - - - - - -
09/03:00am 10.2 SW 32 39 1002.8 - 2.2 - - - - - - -
09/02:30am 10.2 SW 32 39 1002.3 - 2.2 - - - - - - -
09/02:00am 10.5 SW 33 39 1002.0 - 2.2 - - - - - - -
09/01:30am 10.5 SW 34 41 1001.5 - 2.2 - - - - - - -
09/01:00am 10.4 SSW 37 43 1000.9 - 2.2 - - - - - - -
09/12:33am 10.5 SSW 33 53 1000.4 - 2.2 - - - - - - -
09/12:30am 10.7 SSW 34 41 1000.7 - 2.2 - - - - - - -
09/12:00am 10.3 SSW 35 43 999.4 - 2.2 Recent precip. - - - - - -
 
Date/Time
EDT
Temp
°C
Wind Pressure Rain since
9am
mm
Weather Cloud Vis
km
Sea
Height
m
Swell
Dir  Spd
kts
Gust
kts
hPa Trend Height
m
Period
s
Dir
08/11:46pm 10.7 SW 36 46 999.1 - 2.2 - - - - - - -
08/11:30pm 10.1 SW 35 43 998.7 - 2.2 - - - - - - -
08/11:07pm 10.3 SSW 35 45 998.1 - 2.2 - - - - - - -
08/11:00pm 10.0 SW 37 45 997.7 - 2.0 - - - - - - -
08/10:30pm 10.4 SW 38 45 997.2 - 1.8 - - - - - - -
08/10:00pm 10.1 SW 38 46 996.5 - 1.6 - - - - - - -
08/09:30pm 10.8 SW 37 45 995.3 - 1.4 - - - - - - -
08/09:23pm 10.9 SW 37 48 995.1 - 1.4 - - - - - - -
08/09:00pm 11.0 SW 41 48 994.0 - 1.4 Recent precip. - - - - - -
08/08:30pm 11.5 SW 41 53 992.7 - 1.2 - - - - - - -
08/08:06pm 11.7 SW 39 49 991.5 - 1.0 - - - - - - -
08/08:00pm 11.7 SW 42 51 991.2 - 1.0 - - - - - - -
08/07:55pm 11.8 SW 43 52 990.8 - 1.0 - - - - - - -
08/07:30pm 12.3 WSW 43 54 988.6 - 1.0 - - - - - - -
08/07:29pm 12.5 WSW 42 54 989.2 - 1.0 - - - - - - -
08/07:00pm 13.1 WSW 43 53 987.1 - 1.0 - - - - - - -
08/06:30pm 13.8 WSW 37 51 985.0 - 1.0 - - - - - - -
08/06:27pm 14.0 WSW 35 48 984.6 - 1.0 - - - - - - -
08/06:25pm 14.0 W 35 45 984.3 - 1.0 - - - - - - -
08/06:00pm 13.3 WNW 34 48 983.7 - 1.0 - - - - - - -
08/05:30pm 13.9 W 35 47 983.1 - 1.0 - - - - - - -
08/05:18pm 14.6 W 28 42 982.6 - 1.0 - - - - - - -
08/05:14pm 14.4 WNW 27 36 983.0 - 1.0 - - - - - - -
08/05:03pm 14.9 NW 19 30 983.4 - 1.0 - - - - - - -
08/05:00pm 14.8 NW 22 31 983.3 - 1.0 - - - - - - -
08/04:38pm 14.6 NNW 33 45 982.1 - 1.0 - - - - - - -
08/04:30pm 13.9 NNW 33 45 981.0 - 1.0 - - - - - - -
08/04:00pm 14.2 NNW 29 41 982.0 - 1.0 - - - - - - -
08/03:30pm 15.1 NNW 36 54 981.7 - 1.0 - - - - - - -
08/03:00pm 14.9 N 36 46 981.6 - 1.0 Rain - - - - - -
08/02:38pm 14.1 N 34 44 982.7 - 0.8 - - - - - - -
08/02:30pm 14.7 N 36 46 982.7 - 0.8 - - - - - - -
08/02:01pm 15.1 N 34 45 983.4 - 0.8 - - - - - - -
08/02:00pm 15.1 N 33 42 983.4 - 0.8 - - - - - - -
08/01:33pm 15.5 N 32 43 984.0 - 0.8 - - - - - - -
08/01:30pm 15.6 N 31 37 984.4 - 0.8 - - - - - - -
08/01:00pm 15.7 NNW 29 38 985.4 - 0.8 - - - - - - -
08/12:47pm 15.5 N 33 44 985.8 - 0.8 - - - - - - -
08/12:30pm 15.7 N 31 40 986.1 - 0.8 - - - - - - -
08/12:00pm 16.1 NNW 28 39 987.0 - 0.6 - - - - - - -
08/11:30am 15.5 NNW 29 40 986.3 - 0.6 - - - - - - -
08/11:00am 15.7 N 31 43 986.1 - 0.6 - - - - - - -
08/10:51am 15.7 N 30 43 985.8 - 0.4 - - - - - - -
08/10:30am 16.3 NNE 30 38 985.8 - 0.0 - - - - - - -
08/10:00am 16.2 NNE 31 41 985.7 - 0.0 - - - - - - -
08/09:39am 16.1 NNE 36 47 985.9 - 0.0 - - - - - - -
08/09:30am 16.2 NNE 37 46 985.6 - 0.0 - - - - - - -
08/09:07am 15.6 NNE 36 46 985.4 - 0.0 - - - - - - -
08/09:00am 15.5 NNE 36 44 986.3 - 4.6 Rain - - - - - -
08/08:33am 15.8 NNE 35 46 986.7 - 4.4 - - - - - - -
08/08:30am 15.7 NNE 36 41 987.2 - 4.4 - - - - - - -
08/08:00am 15.1 NNE 31 43 987.9 - 4.0 - - - - - - -
08/07:52am 15.1 NNE 27 38 988.6 - 3.8 - - - - - - -
08/07:30am 14.4 NNE 28 35 989.8 - 3.6 - - - - - - -
08/07:00am 14.3 NNE 30 39 990.5 - 2.4 - - - - - - -
08/06:32am 14.1 NNE 29 39 991.9 - 1.4 - - - - - - -
08/06:30am 14.1 NNE 28 35 992.3 - 1.4 - - - - - - -
08/06:00am 15.0 NNE 32 39 992.5 - 0.2 Recent precip. - - - - - -
08/05:42am 15.4 NNE 32 45 992.3 - 0.2 - - - - - - -
08/05:30am 15.9 NNE 29 37 993.4 - 0.2 - - - - - - -
08/05:24am 16.0 NNE 27 37 993.5 - 0.2 - - - - - - -
08/05:00am 15.4 NE 23 30 993.7 - 0.0 - - - - - - -
08/04:30am 14.5 NE 28 37 993.9 - 0.0 - - - - - - -
08/04:00am 15.7 NNE 28 34 995.1 - 0.0 - - - - - - -
08/03:30am 15.8 NNE 29 38 996.0 - 0.0 - - - - - - -
08/03:00am 15.9 NNE 27 33 997.2 - 0.0 - - - - - - -
08/02:30am 16.2 NE 22 26 997.5 - 0.0 - - - - - - -
08/02:06am 15.6 NE 15 25 998.5 - 0.0 - - - - - - -
08/02:00am 15.4 NE 12 20 999.0 - 0.0 - - - - - - -
08/01:30am 14.5 NE 11 17 1000.5 - 0.0 - - - - - - -
08/01:00am 13.8 NE 9 12 1001.2 - 0.0 - - - - - - -
08/12:30am 13.4 NE 10 13 1002.2 - 0.0 - - - - - - -
08/12:00am 13.5 ENE 8 10 1003.1 - 0.0 - - - - - - -
 
Date/Time
EDT
Temp
°C
Wind Pressure Rain since
9am
mm
Weather Cloud Vis
km
Sea
Height
m
Swell
Dir  Spd
kts
Gust
kts
hPa Trend Height
m
Period
s
Dir
07/11:30pm 13.9 NE 5 8 1004.4 - 0.0 - - - - - - -
07/11:00pm 13.7 ENE 6 8 1005.0 - 0.0 - - - - - - -
07/10:30pm 14.3 NNE 6 7 1005.8 - 0.0 - - - - - - -
07/10:00pm 14.4 N 7 9 1007.0 - 0.0 - - - - - - -
07/09:30pm 14.3 N 8 10 1006.8 - 0.0 - - - - - - -
07/09:00pm 14.3 NNW 10 13 1007.1 - 0.0 - - - - - - -
07/08:30pm 14.6 NNW 10 14 1007.8 - 0.0 - - - - - - -
07/08:00pm 14.9 NNW 12 16 1008.1 - 0.0 - - - - - - -
07/07:30pm 15.2 NW 12 15 1008.4 - 0.0 - - - - - - -
07/07:00pm 15.5 NNW 13 17 1008.9 - 0.0 - - - - - - -
07/06:30pm 16.0 NNW 11 15 1009.4 - 0.0 - - - - - - -
07/06:00pm 16.3 NNW 15 18 1009.8 - 0.0 - - - - - - -
07/05:30pm 16.3 NNW 16 20 1010.2 - 0.0 - - - - - - -
07/05:00pm 17.0 NNW 16 19 1010.5 - 0.0 - - - - - - -
07/04:30pm 17.0 NNW 16 22 1010.6 - 0.0 - - - - - - -
07/04:00pm 16.9 NNW 17 23 1010.6 - 0.0 - - - - - - -
07/03:30pm 17.7 NNW 17 21 1010.7 - 0.0 - - - - - - -
07/03:00pm 17.4 NNW 16 20 1010.7 - 0.0 - - - - - - -
07/02:30pm 17.8 NNW 16 20 1010.8 - 0.0 - - - - - - -
07/02:00pm 16.4 NNW 14 19 1011.0 - 0.0 - - - - - - -
07/01:30pm 17.9 NNW 14 19 1011.2 - 0.0 - - - - - - -
07/01:00pm 17.7 NNW 14 19 1011.2 - 0.0 - - - - - - -
07/12:30pm 18.0 NNW 12 18 1011.4 - 0.0 - - - - - - -
07/12:00pm 17.8 NNW 12 17 1011.6 - 0.0 - - - - - - -
07/11:30am 17.6 NNW 14 19 1011.6 - 0.0 - - - - - - -
07/11:00am 17.2 NW 13 17 1011.7 - 0.0 - - - - - - -
07/10:30am 17.1 NW 13 16 1011.5 - 0.0 - - - - - - -
07/10:00am 16.5 NNW 12 16 1011.7 - 0.0 - - - - - - -
07/09:30am 15.7 NNW 15 18 1011.7 - 0.0 - - - - - - -
07/09:00am 14.9 NNW 15 19 1011.8 - 0.0 - - - - - - -
07/08:30am 14.8 NW 15 20 1011.7 - 0.0 - - - - - - -
07/08:00am 15.0 NNW 16 21 1011.4 - 0.0 - - - - - - -
07/07:30am 14.3 NNW 16 21 1011.3 - 0.0 - - - - - - -
07/07:00am 13.9 NNW 16 21 1011.0 - 0.0 - - - - - - -
07/06:30am 14.1 NNW 15 21 1010.9 - 0.0 - - - - - - -
07/06:00am 14.0 NNW 16 19 1010.9 - 0.0 - - - - - - -
07/05:30am 13.9 NW 15 20 1010.9 - 0.0 - - - - - - -
07/05:00am 13.9 NNW 15 19 1010.6 - 0.0 - - - - - - -
07/04:30am 13.9 NNW 12 18 1010.4 - 0.0 - - - - - - -
07/04:00am 13.8 NNW 14 18 1010.5 - 0.0 - - - - - - -
07/03:30am 13.9 NNW 14 18 1010.7 - 0.0 - - - - - - -
07/03:00am 13.7 NW 14 17 1011.1 - 0.0 - - - - - - -
07/02:30am 13.6 NNW 14 18 1011.4 - 0.0 - - - - - - -
07/02:00am 13.7 NNW 14 18 1011.5 - 0.0 - - - - - - -
07/01:30am 13.6 NNW 14 18 1011.6 - 0.0 - - - - - - -
07/01:00am 13.6 NW 14 17 1011.7 - 0.0 - - - - - - -
07/12:30am 13.3 NW 13 15 1011.9 - 0.0 - - - - - - -
07/12:00am 13.5 NNW 13 17 1012.0 - 0.0 - - - - - - -
 
Date/Time
EDT
Temp
°C
Wind Pressure Rain since
9am
mm
Weather Cloud Vis
km
Sea
Height
m
Swell
Dir  Spd
kts
Gust
kts
hPa Trend Height
m
Period
s
Dir
06/11:30pm 13.5 NNW 12 16 1011.9 - 0.0 - - - - - - -
06/11:00pm 13.8 NNW 12 17 1011.9 - 0.0 - - - - - - -
06/10:30pm 13.4 NNW 12 15 1012.1 - 0.0 - - - - - - -
06/10:00pm 13.3 NW 12 15 1012.3 - 0.0 - - - - - - -
06/09:30pm 13.3 NW 10 15 1012.1 - 0.0 - - - - - - -
06/09:00pm 13.2 NW 12 16 1011.9 - 0.0 - - - - - - -
06/08:30pm 13.4 WNW 13 16 1011.7 - 0.0 - - - - - - -
06/08:00pm 14.0 NW 15 20 1011.6 - 0.0 - - - - - - -
06/07:30pm 14.2 NW 13 17 1011.4 - 0.0 - - - - - - -
06/07:00pm 14.1 NW 13 18 1011.2 - 0.0 - - - - - - -
06/06:30pm 14.5 NW 13 16 1011.1 - 0.0 - - - - - - -
06/06:00pm 15.0 NW 12 16 1011.0 - 0.0 - - - - - - -
06/05:30pm 15.4 NW 11 14 1011.0 - 0.0 - - - - - - -
06/05:00pm 15.9 NW 13 16 1011.3 - 0.0 - - - - - - -
06/04:30pm 16.3 NW 10 13 1011.4 - 0.0 - - - - - - -
06/04:00pm 16.4 NW 12 15 1011.3 - 0.0 - - - - - - -
06/03:30pm 16.4 NW 11 15 1011.5 - 0.0 - - - - - - -
06/03:00pm 16.9 NW 11 15 1011.6 - 0.0 - - - - - - -
06/02:30pm 16.8 WNW 12 15 1011.6 - 0.0 - - - - - - -
06/02:00pm 17.4 WNW 10 13 1011.6 - 0.0 - - - - - - -
06/01:30pm 17.1 WNW 10 13 1011.8 - 0.0 - - - - - - -
06/01:00pm 17.2 WNW 10 15 1011.8 - 0.0 - - - - - - -
06/12:30pm 17.4 WNW 10 14 1011.9 - 0.0 - - - - - - -
06/12:00pm 14.9 W 11 14 1011.8 - 0.0 - - - - - - -
06/11:30am 16.7 NW 11 14 1011.7 - 0.0 - - - - - - -
06/11:00am 16.1 WNW 8 10 1011.6 - 0.0 - - - - - - -
06/10:30am 15.5 NW 7 11 1011.6 - 0.0 - - - - - - -
06/10:00am 15.7 NW 6 8 1011.4 - 0.0 - - - - - - -
06/09:30am 13.4 WNW 9 11 1011.7 - 0.0 - - - - - - -
06/09:00am 13.3 WNW 9 12 1011.6 - 0.4 - - - - - - -

Other Formats:

Comma delimited format used in spreadsheet applications
http://www.bom.gov.au/fwo/IDT60701/IDT60701.94974.axf

JavaScript Object Notation format (JSON) in row-major order
http://www.bom.gov.au/fwo/IDT60701/IDT60701.94974.json